sensor_id;sensor_type;location;lat;lon;timestamp;P1;durP1;ratioP1;P2;durP2;ratioP2
11731;SDS011;5922;53.734;10.258;2023-07-29T00:00:55;3.07;;;2.77;;
11731;SDS011;5922;53.734;10.258;2023-07-29T00:03:22;3.60;;;3.10;;
11731;SDS011;5922;53.734;10.258;2023-07-29T00:05:50;3.40;;;3.10;;
11731;SDS011;5922;53.734;10.258;2023-07-29T00:08:18;3.53;;;3.23;;
11731;SDS011;5922;53.734;10.258;2023-07-29T00:10:45;3.27;;;2.97;;
11731;SDS011;5922;53.734;10.258;2023-07-29T00:13:12;3.83;;;3.43;;
11731;SDS011;5922;53.734;10.258;2023-07-29T00:15:40;3.30;;;3.00;;
11731;SDS011;5922;53.734;10.258;2023-07-29T00:18:07;3.23;;;2.97;;
11731;SDS011;5922;53.734;10.258;2023-07-29T00:20:34;3.97;;;3.00;;
11731;SDS011;5922;53.734;10.258;2023-07-29T00:23:01;3.60;;;3.00;;
11731;SDS011;5922;53.734;10.258;2023-07-29T00:25:30;3.50;;;3.00;;
11731;SDS011;5922;53.734;10.258;2023-07-29T00:27:57;3.30;;;3.03;;
11731;SDS011;5922;53.734;10.258;2023-07-29T00:30:25;3.30;;;2.87;;
11731;SDS011;5922;53.734;10.258;2023-07-29T00:32:52;4.43;;;3.23;;
11731;SDS011;5922;53.734;10.258;2023-07-29T00:35:20;4.90;;;3.20;;
11731;SDS011;5922;53.734;10.258;2023-07-29T00:37:47;3.30;;;3.00;;
11731;SDS011;5922;53.734;10.258;2023-07-29T00:40:15;3.20;;;2.90;;
11731;SDS011;5922;53.734;10.258;2023-07-29T00:42:43;3.10;;;2.80;;
11731;SDS011;5922;53.734;10.258;2023-07-29T00:45:11;3.27;;;2.97;;
11731;SDS011;5922;53.734;10.258;2023-07-29T00:47:38;3.00;;;2.63;;
11731;SDS011;5922;53.734;10.258;2023-07-29T00:50:06;3.23;;;2.93;;
11731;SDS011;5922;53.734;10.258;2023-07-29T00:52:34;2.87;;;2.67;;
11731;SDS011;5922;53.734;10.258;2023-07-29T00:55:01;4.27;;;2.90;;
11731;SDS011;5922;53.734;10.258;2023-07-29T00:57:29;3.27;;;2.90;;
11731;SDS011;5922;53.734;10.258;2023-07-29T00:59:58;3.57;;;2.70;;
11731;SDS011;5922;53.734;10.258;2023-07-29T01:02:26;3.40;;;2.80;;
11731;SDS011;5922;53.734;10.258;2023-07-29T01:04:55;3.13;;;2.80;;
11731;SDS011;5922;53.734;10.258;2023-07-29T01:07:23;3.73;;;2.73;;
11731;SDS011;5922;53.734;10.258;2023-07-29T01:09:56;3.23;;;2.80;;
11731;SDS011;5922;53.734;10.258;2023-07-29T01:12:26;3.30;;;2.80;;
11731;SDS011;5922;53.734;10.258;2023-07-29T01:14:55;2.73;;;2.53;;
11731;SDS011;5922;53.734;10.258;2023-07-29T01:17:29;3.00;;;2.70;;
11731;SDS011;5922;53.734;10.258;2023-07-29T01:19:59;3.67;;;2.87;;
11731;SDS011;5922;53.734;10.258;2023-07-29T01:22:28;3.00;;;2.80;;
11731;SDS011;5922;53.734;10.258;2023-07-29T01:24:58;3.30;;;3.00;;
11731;SDS011;5922;53.734;10.258;2023-07-29T01:27:26;3.43;;;3.13;;
11731;SDS011;5922;53.734;10.258;2023-07-29T01:29:53;4.70;;;3.33;;
11731;SDS011;5922;53.734;10.258;2023-07-29T01:32:25;3.20;;;2.87;;
11731;SDS011;5922;53.734;10.258;2023-07-29T01:34:56;4.10;;;3.40;;
11731;SDS011;5922;53.734;10.258;2023-07-29T01:37:25;3.70;;;3.17;;
11731;SDS011;5922;53.734;10.258;2023-07-29T01:39:53;4.30;;;3.10;;
11731;SDS011;5922;53.734;10.258;2023-07-29T01:42:25;3.83;;;3.40;;
11731;SDS011;5922;53.734;10.258;2023-07-29T01:44:52;2.93;;;2.73;;
11731;SDS011;5922;53.734;10.258;2023-07-29T01:47:20;3.57;;;3.27;;
11731;SDS011;5922;53.734;10.258;2023-07-29T01:49:48;3.70;;;3.30;;
11731;SDS011;5922;53.734;10.258;2023-07-29T01:52:15;4.23;;;2.90;;
11731;SDS011;5922;53.734;10.258;2023-07-29T01:54:43;3.77;;;2.80;;
11731;SDS011;5922;53.734;10.258;2023-07-29T01:57:10;3.50;;;3.20;;
11731;SDS011;5922;53.734;10.258;2023-07-29T01:59:39;4.37;;;2.90;;
11731;SDS011;5922;53.734;10.258;2023-07-29T02:02:07;3.33;;;3.00;;
11731;SDS011;5922;53.734;10.258;2023-07-29T02:04:35;3.20;;;2.90;;
11731;SDS011;5922;53.734;10.258;2023-07-29T02:07:02;5.70;;;3.17;;
11731;SDS011;5922;53.734;10.258;2023-07-29T02:09:29;3.87;;;3.07;;
11731;SDS011;5922;53.734;10.258;2023-07-29T02:11:57;4.20;;;3.20;;
11731;SDS011;5922;53.734;10.258;2023-07-29T02:14:24;3.27;;;2.97;;
11731;SDS011;5922;53.734;10.258;2023-07-29T02:16:53;3.27;;;2.97;;
11731;SDS011;5922;53.734;10.258;2023-07-29T02:19:20;3.00;;;2.80;;
11731;SDS011;5922;53.734;10.258;2023-07-29T02:21:47;4.60;;;3.50;;
11731;SDS011;5922;53.734;10.258;2023-07-29T02:24:15;3.73;;;3.43;;
11731;SDS011;5922;53.734;10.258;2023-07-29T02:26:42;3.73;;;3.40;;
11731;SDS011;5922;53.734;10.258;2023-07-29T02:29:09;4.13;;;3.53;;
11731;SDS011;5922;53.734;10.258;2023-07-29T02:31:36;4.23;;;3.83;;
11731;SDS011;5922;53.734;10.258;2023-07-29T02:34:05;17.23;;;5.43;;
11731;SDS011;5922;53.734;10.258;2023-07-29T02:36:32;6.97;;;4.60;;
11731;SDS011;5922;53.734;10.258;2023-07-29T02:38:59;8.10;;;4.67;;
11731;SDS011;5922;53.734;10.258;2023-07-29T02:41:27;5.20;;;4.37;;
11731;SDS011;5922;53.734;10.258;2023-07-29T02:43:54;5.30;;;4.77;;
11731;SDS011;5922;53.734;10.258;2023-07-29T02:46:21;5.93;;;4.07;;
11731;SDS011;5922;53.734;10.258;2023-07-29T02:48:49;4.90;;;4.27;;
11731;SDS011;5922;53.734;10.258;2023-07-29T02:51:17;4.43;;;4.00;;
11731;SDS011;5922;53.734;10.258;2023-07-29T02:53:45;5.60;;;4.53;;
11731;SDS011;5922;53.734;10.258;2023-07-29T02:56:12;5.43;;;3.97;;
11731;SDS011;5922;53.734;10.258;2023-07-29T02:58:39;5.27;;;3.80;;
11731;SDS011;5922;53.734;10.258;2023-07-29T03:01:06;5.27;;;4.63;;
11731;SDS011;5922;53.734;10.258;2023-07-29T03:03:33;4.60;;;4.20;;
11731;SDS011;5922;53.734;10.258;2023-07-29T03:06:01;4.47;;;4.07;;
11731;SDS011;5922;53.734;10.258;2023-07-29T03:08:30;4.57;;;4.17;;
11731;SDS011;5922;53.734;10.258;2023-07-29T03:10:58;6.80;;;4.33;;
11731;SDS011;5922;53.734;10.258;2023-07-29T03:13:25;4.17;;;3.77;;
11731;SDS011;5922;53.734;10.258;2023-07-29T03:15:52;5.00;;;4.17;;
11731;SDS011;5922;53.734;10.258;2023-07-29T03:18:20;5.93;;;4.20;;
11731;SDS011;5922;53.734;10.258;2023-07-29T03:20:48;4.90;;;4.27;;
11731;SDS011;5922;53.734;10.258;2023-07-29T03:23:15;4.53;;;4.13;;
11731;SDS011;5922;53.734;10.258;2023-07-29T03:25:47;4.70;;;4.30;;
11731;SDS011;5922;53.734;10.258;2023-07-29T03:28:15;4.53;;;4.13;;
11731;SDS011;5922;53.734;10.258;2023-07-29T03:30:43;5.13;;;4.67;;
11731;SDS011;5922;53.734;10.258;2023-07-29T03:33:10;4.57;;;4.17;;
11731;SDS011;5922;53.734;10.258;2023-07-29T03:35:37;4.80;;;4.40;;
11731;SDS011;5922;53.734;10.258;2023-07-29T03:38:04;5.30;;;4.67;;
11731;SDS011;5922;53.734;10.258;2023-07-29T03:40:31;5.30;;;4.83;;
11731;SDS011;5922;53.734;10.258;2023-07-29T03:43:00;5.30;;;4.77;;
11731;SDS011;5922;53.734;10.258;2023-07-29T03:45:27;5.30;;;4.90;;
11731;SDS011;5922;53.734;10.258;2023-07-29T03:47:54;6.07;;;5.13;;
11731;SDS011;5922;53.734;10.258;2023-07-29T03:50:22;5.77;;;5.27;;
11731;SDS011;5922;53.734;10.258;2023-07-29T03:52:49;7.60;;;5.57;;
11731;SDS011;5922;53.734;10.258;2023-07-29T03:55:16;5.37;;;4.90;;
11731;SDS011;5922;53.734;10.258;2023-07-29T03:57:44;5.80;;;5.30;;
11731;SDS011;5922;53.734;10.258;2023-07-29T04:00:12;5.37;;;4.87;;
11731;SDS011;5922;53.734;10.258;2023-07-29T04:02:40;7.97;;;5.60;;
11731;SDS011;5922;53.734;10.258;2023-07-29T04:05:17;6.60;;;6.00;;
11731;SDS011;5922;53.734;10.258;2023-07-29T04:07:46;7.10;;;5.93;;
11731;SDS011;5922;53.734;10.258;2023-07-29T04:10:17;6.20;;;5.57;;
11731;SDS011;5922;53.734;10.258;2023-07-29T04:13:07;6.43;;;5.83;;
11731;SDS011;5922;53.734;10.258;2023-07-29T04:15:43;8.00;;;7.20;;
11731;SDS011;5922;53.734;10.258;2023-07-29T04:18:11;6.93;;;5.97;;
11731;SDS011;5922;53.734;10.258;2023-07-29T04:20:38;6.97;;;6.27;;
11731;SDS011;5922;53.734;10.258;2023-07-29T04:23:08;7.47;;;6.77;;
11731;SDS011;5922;53.734;10.258;2023-07-29T04:26:04;12.67;;;7.67;;
11731;SDS011;5922;53.734;10.258;2023-07-29T04:28:43;8.50;;;7.23;;
11731;SDS011;5922;53.734;10.258;2023-07-29T04:31:35;9.57;;;7.43;;
11731;SDS011;5922;53.734;10.258;2023-07-29T04:34:17;10.43;;;8.23;;
11731;SDS011;5922;53.734;10.258;2023-07-29T04:37:07;10.33;;;8.87;;
11731;SDS011;5922;53.734;10.258;2023-07-29T04:42:47;13.50;;;11.17;;
11731;SDS011;5922;53.734;10.258;2023-07-29T04:46:12;16.90;;;13.40;;
11731;SDS011;5922;53.734;10.258;2023-07-29T04:48:53;16.73;;;13.73;;
11731;SDS011;5922;53.734;10.258;2023-07-29T04:51:23;20.17;;;14.93;;
11731;SDS011;5922;53.734;10.258;2023-07-29T04:54:04;18.47;;;14.33;;
11731;SDS011;5922;53.734;10.258;2023-07-29T04:56:32;17.90;;;15.37;;
11731;SDS011;5922;53.734;10.258;2023-07-29T04:59:00;18.13;;;14.90;;
11731;SDS011;5922;53.734;10.258;2023-07-29T05:01:43;18.43;;;15.00;;
11731;SDS011;5922;53.734;10.258;2023-07-29T05:07:12;19.97;;;17.43;;
11731;SDS011;5922;53.734;10.258;2023-07-29T05:09:48;19.30;;;17.20;;
11731;SDS011;5922;53.734;10.258;2023-07-29T05:12:31;19.73;;;17.63;;
11731;SDS011;5922;53.734;10.258;2023-07-29T05:15:18;18.83;;;16.83;;
11731;SDS011;5922;53.734;10.258;2023-07-29T05:18:04;19.87;;;17.87;;
11731;SDS011;5922;53.734;10.258;2023-07-29T05:22:56;19.53;;;17.50;;
11731;SDS011;5922;53.734;10.258;2023-07-29T05:35:40;18.97;;;16.33;;
11731;SDS011;5922;53.734;10.258;2023-07-29T05:38:33;18.23;;;16.27;;
11731;SDS011;5922;53.734;10.258;2023-07-29T05:41:16;16.93;;;15.17;;
11731;SDS011;5922;53.734;10.258;2023-07-29T05:43:56;19.17;;;15.83;;
11731;SDS011;5922;53.734;10.258;2023-07-29T05:46:42;16.50;;;14.77;;
11731;SDS011;5922;53.734;10.258;2023-07-29T05:49:11;17.53;;;15.83;;
11731;SDS011;5922;53.734;10.258;2023-07-29T06:01:19;16.13;;;13.83;;
11731;SDS011;5922;53.734;10.258;2023-07-29T06:04:05;17.20;;;14.27;;
11731;SDS011;5922;53.734;10.258;2023-07-29T06:06:50;14.77;;;13.37;;
11731;SDS011;5922;53.734;10.258;2023-07-29T06:21:49;16.40;;;12.83;;
11731;SDS011;5922;53.734;10.258;2023-07-29T07:05:49;14.83;;;13.27;;
11731;SDS011;5922;53.734;10.258;2023-07-29T07:08:17;15.40;;;13.00;;
11731;SDS011;5922;53.734;10.258;2023-07-29T07:10:44;14.03;;;12.67;;
11731;SDS011;5922;53.734;10.258;2023-07-29T07:13:13;16.90;;;13.30;;
11731;SDS011;5922;53.734;10.258;2023-07-29T07:18:10;15.97;;;13.67;;
11731;SDS011;5922;53.734;10.258;2023-07-29T07:20:37;15.73;;;14.10;;
11731;SDS011;5922;53.734;10.258;2023-07-29T07:23:06;15.40;;;13.87;;
11731;SDS011;5922;53.734;10.258;2023-07-29T07:25:36;13.97;;;12.60;;
11731;SDS011;5922;53.734;10.258;2023-07-29T07:28:03;14.10;;;11.90;;
11731;SDS011;5922;53.734;10.258;2023-07-29T07:30:31;15.13;;;13.60;;
11731;SDS011;5922;53.734;10.258;2023-07-29T07:32:58;15.43;;;13.80;;
11731;SDS011;5922;53.734;10.258;2023-07-29T07:35:25;15.47;;;13.77;;
11731;SDS011;5922;53.734;10.258;2023-07-29T07:37:52;17.47;;;15.67;;
11731;SDS011;5922;53.734;10.258;2023-07-29T07:40:21;18.63;;;16.57;;
11731;SDS011;5922;53.734;10.258;2023-07-29T07:42:48;19.43;;;17.53;;
11731;SDS011;5922;53.734;10.258;2023-07-29T07:45:15;20.47;;;18.47;;
11731;SDS011;5922;53.734;10.258;2023-07-29T07:47:43;22.00;;;19.10;;
11731;SDS011;5922;53.734;10.258;2023-07-29T07:50:10;20.50;;;18.33;;
11731;SDS011;5922;53.734;10.258;2023-07-29T07:52:39;23.50;;;20.27;;
11731;SDS011;5922;53.734;10.258;2023-07-29T07:55:06;25.30;;;20.93;;
11731;SDS011;5922;53.734;10.258;2023-07-29T07:57:37;22.60;;;20.27;;
11731;SDS011;5922;53.734;10.258;2023-07-29T08:00:05;21.73;;;19.50;;
11731;SDS011;5922;53.734;10.258;2023-07-29T08:02:32;20.93;;;18.70;;
11731;SDS011;5922;53.734;10.258;2023-07-29T08:04:59;20.97;;;18.77;;
11731;SDS011;5922;53.734;10.258;2023-07-29T08:07:26;19.53;;;17.53;;
11731;SDS011;5922;53.734;10.258;2023-07-29T08:09:54;20.93;;;17.27;;
11731;SDS011;5922;53.734;10.258;2023-07-29T08:12:21;21.60;;;17.77;;
11731;SDS011;5922;53.734;10.258;2023-07-29T08:14:49;20.17;;;17.87;;
11731;SDS011;5922;53.734;10.258;2023-07-29T08:17:17;19.37;;;17.33;;
11731;SDS011;5922;53.734;10.258;2023-07-29T08:19:44;19.17;;;17.27;;
11731;SDS011;5922;53.734;10.258;2023-07-29T08:22:11;19.63;;;17.03;;
11731;SDS011;5922;53.734;10.258;2023-07-29T08:24:38;18.87;;;17.03;;
11731;SDS011;5922;53.734;10.258;2023-07-29T08:27:06;27.27;;;19.67;;
11731;SDS011;5922;53.734;10.258;2023-07-29T08:29:33;20.23;;;17.80;;
11731;SDS011;5922;53.734;10.258;2023-07-29T08:32:04;20.60;;;18.40;;
11731;SDS011;5922;53.734;10.258;2023-07-29T08:34:31;19.97;;;17.57;;
11731;SDS011;5922;53.734;10.258;2023-07-29T08:36:58;18.70;;;16.70;;
11731;SDS011;5922;53.734;10.258;2023-07-29T08:39:28;20.23;;;17.50;;
11731;SDS011;5922;53.734;10.258;2023-07-29T08:41:57;19.87;;;17.77;;
11731;SDS011;5922;53.734;10.258;2023-07-29T08:44:30;19.40;;;17.17;;
11731;SDS011;5922;53.734;10.258;2023-07-29T08:46:58;18.63;;;16.77;;
11731;SDS011;5922;53.734;10.258;2023-07-29T08:49:28;18.13;;;16.23;;
11731;SDS011;5922;53.734;10.258;2023-07-29T08:51:55;18.30;;;16.40;;
11731;SDS011;5922;53.734;10.258;2023-07-29T08:54:24;18.20;;;16.30;;
11731;SDS011;5922;53.734;10.258;2023-07-29T08:56:52;18.07;;;16.17;;
11731;SDS011;5922;53.734;10.258;2023-07-29T08:59:19;18.10;;;16.20;;
11731;SDS011;5922;53.734;10.258;2023-07-29T09:01:46;17.83;;;15.93;;
11731;SDS011;5922;53.734;10.258;2023-07-29T09:04:14;17.83;;;15.93;;
11731;SDS011;5922;53.734;10.258;2023-07-29T09:06:43;17.97;;;16.07;;
11731;SDS011;5922;53.734;10.258;2023-07-29T09:09:11;17.40;;;15.70;;
11731;SDS011;5922;53.734;10.258;2023-07-29T09:11:39;18.43;;;16.53;;
11731;SDS011;5922;53.734;10.258;2023-07-29T09:14:06;17.30;;;15.40;;
11731;SDS011;5922;53.734;10.258;2023-07-29T09:16:33;17.63;;;15.73;;
11731;SDS011;5922;53.734;10.258;2023-07-29T09:19:01;16.90;;;15.20;;
11731;SDS011;5922;53.734;10.258;2023-07-29T09:21:29;16.07;;;14.07;;
11731;SDS011;5922;53.734;10.258;2023-07-29T09:23:58;16.20;;;13.80;;
11731;SDS011;5922;53.734;10.258;2023-07-29T09:26:29;14.73;;;12.77;;
11731;SDS011;5922;53.734;10.258;2023-07-29T09:28:58;17.33;;;13.03;;
11731;SDS011;5922;53.734;10.258;2023-07-29T09:31:26;14.03;;;12.57;;
11731;SDS011;5922;53.734;10.258;2023-07-29T09:33:55;14.23;;;12.33;;
11731;SDS011;5922;53.734;10.258;2023-07-29T09:36:23;14.47;;;12.17;;
11731;SDS011;5922;53.734;10.258;2023-07-29T09:38:52;15.60;;;12.97;;
11731;SDS011;5922;53.734;10.258;2023-07-29T09:41:23;16.33;;;13.03;;
11731;SDS011;5922;53.734;10.258;2023-07-29T09:43:54;14.53;;;12.77;;
11731;SDS011;5922;53.734;10.258;2023-07-29T09:46:23;13.53;;;12.23;;
11731;SDS011;5922;53.734;10.258;2023-07-29T09:48:52;12.97;;;11.57;;
11731;SDS011;5922;53.734;10.258;2023-07-29T09:51:19;16.20;;;14.20;;
11731;SDS011;5922;53.734;10.258;2023-07-29T09:53:47;14.77;;;13.17;;
11731;SDS011;5922;53.734;10.258;2023-07-29T09:56:15;14.40;;;13.07;;
11731;SDS011;5922;53.734;10.258;2023-07-29T09:58:44;15.20;;;12.93;;
11731;SDS011;5922;53.734;10.258;2023-07-29T10:01:11;13.83;;;12.30;;
11731;SDS011;5922;53.734;10.258;2023-07-29T10:03:39;14.70;;;12.10;;
11731;SDS011;5922;53.734;10.258;2023-07-29T10:06:06;14.23;;;11.93;;
11731;SDS011;5922;53.734;10.258;2023-07-29T10:08:34;17.00;;;11.87;;
11731;SDS011;5922;53.734;10.258;2023-07-29T10:11:03;12.80;;;11.57;;
11731;SDS011;5922;53.734;10.258;2023-07-29T10:13:32;13.67;;;11.20;;
11731;SDS011;5922;53.734;10.258;2023-07-29T10:16:01;13.07;;;11.03;;
11731;SDS011;5922;53.734;10.258;2023-07-29T10:18:29;12.23;;;10.07;;
11731;SDS011;5922;53.734;10.258;2023-07-29T10:20:57;12.33;;;10.63;;
11731;SDS011;5922;53.734;10.258;2023-07-29T10:23:24;11.13;;;10.00;;
11731;SDS011;5922;53.734;10.258;2023-07-29T10:25:54;11.53;;;9.70;;
11731;SDS011;5922;53.734;10.258;2023-07-29T10:28:22;10.43;;;9.27;;
11731;SDS011;5922;53.734;10.258;2023-07-29T10:30:52;10.03;;;9.03;;
11731;SDS011;5922;53.734;10.258;2023-07-29T10:33:22;9.40;;;8.43;;
11731;SDS011;5922;53.734;10.258;2023-07-29T10:35:49;9.77;;;8.17;;
11731;SDS011;5922;53.734;10.258;2023-07-29T10:38:16;16.20;;;8.00;;
11731;SDS011;5922;53.734;10.258;2023-07-29T10:40:45;12.17;;;7.77;;
11731;SDS011;5922;53.734;10.258;2023-07-29T10:43:12;8.63;;;7.70;;
11731;SDS011;5922;53.734;10.258;2023-07-29T10:45:40;8.03;;;6.60;;
11731;SDS011;5922;53.734;10.258;2023-07-29T10:48:10;7.77;;;6.20;;
11731;SDS011;5922;53.734;10.258;2023-07-29T10:50:39;8.70;;;6.10;;
11731;SDS011;5922;53.734;10.258;2023-07-29T10:53:06;7.23;;;5.87;;
11731;SDS011;5922;53.734;10.258;2023-07-29T10:55:34;7.00;;;6.30;;
11731;SDS011;5922;53.734;10.258;2023-07-29T10:58:12;6.40;;;5.63;;
11731;SDS011;5922;53.734;10.258;2023-07-29T11:00:41;6.63;;;5.13;;
11731;SDS011;5922;53.734;10.258;2023-07-29T11:06:11;5.43;;;4.93;;
11731;SDS011;5922;53.734;10.258;2023-07-29T11:08:40;5.67;;;4.50;;
11731;SDS011;5922;53.734;10.258;2023-07-29T11:11:07;6.10;;;4.37;;
11731;SDS011;5922;53.734;10.258;2023-07-29T11:13:35;5.00;;;4.60;;
11731;SDS011;5922;53.734;10.258;2023-07-29T11:16:03;6.07;;;5.47;;
11731;SDS011;5922;53.734;10.258;2023-07-29T11:18:31;5.57;;;5.07;;
11731;SDS011;5922;53.734;10.258;2023-07-29T11:20:58;6.13;;;4.77;;
11731;SDS011;5922;53.734;10.258;2023-07-29T11:23:31;5.63;;;4.70;;
11731;SDS011;5922;53.734;10.258;2023-07-29T11:25:58;5.23;;;4.73;;
11731;SDS011;5922;53.734;10.258;2023-07-29T11:28:26;6.10;;;5.03;;
11731;SDS011;5922;53.734;10.258;2023-07-29T11:30:54;5.27;;;4.77;;
11731;SDS011;5922;53.734;10.258;2023-07-29T11:33:23;4.80;;;4.40;;
11731;SDS011;5922;53.734;10.258;2023-07-29T11:35:51;7.57;;;4.70;;
11731;SDS011;5922;53.734;10.258;2023-07-29T11:38:18;5.63;;;4.57;;
11731;SDS011;5922;53.734;10.258;2023-07-29T11:40:58;5.80;;;4.30;;
11731;SDS011;5922;53.734;10.258;2023-07-29T11:43:25;5.37;;;4.73;;
11731;SDS011;5922;53.734;10.258;2023-07-29T11:45:53;6.33;;;5.07;;
11731;SDS011;5922;53.734;10.258;2023-07-29T11:48:27;4.93;;;4.47;;
11731;SDS011;5922;53.734;10.258;2023-07-29T11:50:54;4.40;;;4.00;;
11731;SDS011;5922;53.734;10.258;2023-07-29T11:53:25;4.93;;;3.90;;
11731;SDS011;5922;53.734;10.258;2023-07-29T11:55:53;4.43;;;4.03;;
11731;SDS011;5922;53.734;10.258;2023-07-29T11:58:25;5.10;;;3.57;;
11731;SDS011;5922;53.734;10.258;2023-07-29T12:01:06;3.87;;;3.57;;
11731;SDS011;5922;53.734;10.258;2023-07-29T12:03:34;4.30;;;3.57;;
11731;SDS011;5922;53.734;10.258;2023-07-29T12:06:06;4.37;;;4.03;;
11731;SDS011;5922;53.734;10.258;2023-07-29T12:08:34;5.33;;;4.23;;
11731;SDS011;5922;53.734;10.258;2023-07-29T12:11:01;4.53;;;3.87;;
11731;SDS011;5922;53.734;10.258;2023-07-29T12:13:36;4.10;;;3.80;;
11731;SDS011;5922;53.734;10.258;2023-07-29T12:16:03;4.10;;;3.80;;
11731;SDS011;5922;53.734;10.258;2023-07-29T12:18:31;3.90;;;3.50;;
11731;SDS011;5922;53.734;10.258;2023-07-29T12:20:59;4.00;;;3.60;;
11731;SDS011;5922;53.734;10.258;2023-07-29T12:23:26;5.27;;;3.80;;
11731;SDS011;5922;53.734;10.258;2023-07-29T12:25:56;4.50;;;4.10;;
11731;SDS011;5922;53.734;10.258;2023-07-29T12:28:24;4.37;;;3.40;;
11731;SDS011;5922;53.734;10.258;2023-07-29T12:36:52;3.60;;;3.30;;
11731;SDS011;5922;53.734;10.258;2023-07-29T12:39:21;4.73;;;3.70;;
11731;SDS011;5922;53.734;10.258;2023-07-29T12:41:51;4.23;;;3.50;;
11731;SDS011;5922;53.734;10.258;2023-07-29T12:44:19;3.47;;;3.17;;
11731;SDS011;5922;53.734;10.258;2023-07-29T12:49:57;3.10;;;2.53;;
11731;SDS011;5922;53.734;10.258;2023-07-29T12:52:27;3.43;;;3.13;;
11731;SDS011;5922;53.734;10.258;2023-07-29T12:54:54;2.93;;;2.73;;
11731;SDS011;5922;53.734;10.258;2023-07-29T12:57:21;3.30;;;3.00;;
11731;SDS011;5922;53.734;10.258;2023-07-29T12:59:48;3.30;;;3.00;;
11731;SDS011;5922;53.734;10.258;2023-07-29T13:02:15;3.63;;;2.77;;
11731;SDS011;5922;53.734;10.258;2023-07-29T13:04:43;3.20;;;2.90;;
11731;SDS011;5922;53.734;10.258;2023-07-29T13:07:10;3.43;;;3.13;;
11731;SDS011;5922;53.734;10.258;2023-07-29T13:09:38;2.37;;;2.17;;
11731;SDS011;5922;53.734;10.258;2023-07-29T13:12:06;3.23;;;2.60;;
11731;SDS011;5922;53.734;10.258;2023-07-29T13:14:33;2.97;;;2.77;;
11731;SDS011;5922;53.734;10.258;2023-07-29T13:17:03;2.47;;;2.27;;
11731;SDS011;5922;53.734;10.258;2023-07-29T13:19:30;2.60;;;2.40;;
11731;SDS011;5922;53.734;10.258;2023-07-29T13:21:57;2.77;;;2.57;;
11731;SDS011;5922;53.734;10.258;2023-07-29T13:24:24;2.70;;;2.50;;
11731;SDS011;5922;53.734;10.258;2023-07-29T13:26:53;2.57;;;2.37;;
11731;SDS011;5922;53.734;10.258;2023-07-29T13:29:22;4.37;;;2.40;;
11731;SDS011;5922;53.734;10.258;2023-07-29T13:31:49;2.83;;;2.30;;
11731;SDS011;5922;53.734;10.258;2023-07-29T13:34:17;3.50;;;2.50;;
11731;SDS011;5922;53.734;10.258;2023-07-29T13:36:44;2.40;;;2.20;;
11731;SDS011;5922;53.734;10.258;2023-07-29T13:39:11;2.60;;;2.40;;
11731;SDS011;5922;53.734;10.258;2023-07-29T13:41:38;6.00;;;2.57;;
11731;SDS011;5922;53.734;10.258;2023-07-29T13:44:07;2.23;;;2.03;;
11731;SDS011;5922;53.734;10.258;2023-07-29T13:46:36;5.40;;;2.60;;
11731;SDS011;5922;53.734;10.258;2023-07-29T13:49:03;2.27;;;1.90;;
11731;SDS011;5922;53.734;10.258;2023-07-29T13:51:31;3.27;;;2.17;;
11731;SDS011;5922;53.734;10.258;2023-07-29T13:53:58;3.40;;;2.20;;
11731;SDS011;5922;53.734;10.258;2023-07-29T13:56:25;3.40;;;2.80;;
11731;SDS011;5922;53.734;10.258;2023-07-29T14:14:17;2.00;;;1.90;;
11731;SDS011;5922;53.734;10.258;2023-07-29T14:16:44;2.40;;;2.20;;
11731;SDS011;5922;53.734;10.258;2023-07-29T14:19:11;3.03;;;2.40;;
11731;SDS011;5922;53.734;10.258;2023-07-29T14:21:39;2.50;;;2.17;;
11731;SDS011;5922;53.734;10.258;2023-07-29T14:24:06;2.20;;;2.00;;
11731;SDS011;5922;53.734;10.258;2023-07-29T14:26:33;1.93;;;1.83;;
11731;SDS011;5922;53.734;10.258;2023-07-29T14:29:00;2.47;;;1.90;;
11731;SDS011;5922;53.734;10.258;2023-07-29T14:31:29;2.63;;;1.87;;
11731;SDS011;5922;53.734;10.258;2023-07-29T14:33:56;2.33;;;2.13;;
11731;SDS011;5922;53.734;10.258;2023-07-29T14:36:24;3.23;;;1.97;;
11731;SDS011;5922;53.734;10.258;2023-07-29T14:38:51;2.20;;;2.00;;
11731;SDS011;5922;53.734;10.258;2023-07-29T14:41:18;1.80;;;1.70;;
11731;SDS011;5922;53.734;10.258;2023-07-29T14:43:46;4.97;;;2.30;;
11731;SDS011;5922;53.734;10.258;2023-07-29T14:46:13;5.70;;;2.00;;
11731;SDS011;5922;53.734;10.258;2023-07-29T14:48:42;4.07;;;2.37;;
11731;SDS011;5922;53.734;10.258;2023-07-29T14:51:10;2.30;;;2.10;;
11731;SDS011;5922;53.734;10.258;2023-07-29T14:53:37;2.37;;;2.17;;
11731;SDS011;5922;53.734;10.258;2023-07-29T14:56:04;3.87;;;2.10;;
11731;SDS011;5922;53.734;10.258;2023-07-29T14:58:32;2.90;;;2.10;;
11731;SDS011;5922;53.734;10.258;2023-07-29T15:00:59;3.00;;;2.27;;
11731;SDS011;5922;53.734;10.258;2023-07-29T15:03:26;2.20;;;2.00;;
11731;SDS011;5922;53.734;10.258;2023-07-29T15:09:01;3.17;;;2.10;;
11731;SDS011;5922;53.734;10.258;2023-07-29T15:11:29;3.17;;;2.03;;
11731;SDS011;5922;53.734;10.258;2023-07-29T15:13:58;2.93;;;2.10;;
11731;SDS011;5922;53.734;10.258;2023-07-29T15:16:28;2.90;;;2.13;;
11731;SDS011;5922;53.734;10.258;2023-07-29T15:19:04;2.00;;;1.90;;
11731;SDS011;5922;53.734;10.258;2023-07-29T15:21:32;2.27;;;1.90;;
11731;SDS011;5922;53.734;10.258;2023-07-29T15:24:01;2.57;;;2.37;;
11731;SDS011;5922;53.734;10.258;2023-07-29T15:26:28;2.20;;;1.83;;
11731;SDS011;5922;53.734;10.258;2023-07-29T15:28:55;2.53;;;1.90;;
11731;SDS011;5922;53.734;10.258;2023-07-29T15:31:22;2.17;;;1.97;;
11731;SDS011;5922;53.734;10.258;2023-07-29T15:33:50;2.67;;;1.90;;
11731;SDS011;5922;53.734;10.258;2023-07-29T15:36:17;2.10;;;1.90;;
11731;SDS011;5922;53.734;10.258;2023-07-29T15:38:44;2.70;;;2.03;;
11731;SDS011;5922;53.734;10.258;2023-07-29T15:41:13;2.30;;;2.10;;
11731;SDS011;5922;53.734;10.258;2023-07-29T15:43:43;2.10;;;1.90;;
11731;SDS011;5922;53.734;10.258;2023-07-29T15:46:11;2.90;;;2.07;;
11731;SDS011;5922;53.734;10.258;2023-07-29T15:48:38;2.70;;;2.13;;
11731;SDS011;5922;53.734;10.258;2023-07-29T15:51:05;2.27;;;1.90;;
11731;SDS011;5922;53.734;10.258;2023-07-29T15:53:33;2.30;;;1.73;;
11731;SDS011;5922;53.734;10.258;2023-07-29T15:56:00;3.93;;;2.23;;
11731;SDS011;5922;53.734;10.258;2023-07-29T15:58:30;4.07;;;2.10;;
11731;SDS011;5922;53.734;10.258;2023-07-29T16:00:58;2.17;;;1.90;;
11731;SDS011;5922;53.734;10.258;2023-07-29T16:03:25;2.20;;;2.00;;
11731;SDS011;5922;53.734;10.258;2023-07-29T16:05:52;2.33;;;2.10;;
11731;SDS011;5922;53.734;10.258;2023-07-29T16:08:20;2.37;;;2.13;;
11731;SDS011;5922;53.734;10.258;2023-07-29T16:10:47;2.63;;;1.90;;
11731;SDS011;5922;53.734;10.258;2023-07-29T16:13:14;3.50;;;2.00;;
11731;SDS011;5922;53.734;10.258;2023-07-29T16:15:46;4.63;;;3.67;;
11731;SDS011;5922;53.734;10.258;2023-07-29T16:18:13;2.40;;;2.20;;
11731;SDS011;5922;53.734;10.258;2023-07-29T16:20:40;3.10;;;2.50;;
11731;SDS011;5922;53.734;10.258;2023-07-29T16:23:07;2.40;;;2.00;;
11731;SDS011;5922;53.734;10.258;2023-07-29T16:25:34;2.33;;;1.87;;
11731;SDS011;5922;53.734;10.258;2023-07-29T16:28:02;2.40;;;2.10;;
11731;SDS011;5922;53.734;10.258;2023-07-29T16:30:29;2.00;;;1.80;;
11731;SDS011;5922;53.734;10.258;2023-07-29T16:32:57;2.57;;;2.27;;
11731;SDS011;5922;53.734;10.258;2023-07-29T16:35:25;3.00;;;2.70;;
11731;SDS011;5922;53.734;10.258;2023-07-29T16:37:52;3.40;;;2.53;;
11731;SDS011;5922;53.734;10.258;2023-07-29T16:40:20;2.60;;;2.40;;
11731;SDS011;5922;53.734;10.258;2023-07-29T16:42:47;4.27;;;2.20;;
11731;SDS011;5922;53.734;10.258;2023-07-29T16:45:14;1.70;;;1.50;;
11731;SDS011;5922;53.734;10.258;2023-07-29T16:47:42;2.40;;;1.87;;